sensor_id;sensor_type;location;lat;lon;timestamp;pressure;altitude;pressure_sealevel;temperature;humidity
13734;BME280;43298;52.560;13.508;2023-05-23T00:00:56;100614.53;;;17.28;84.67
13734;BME280;43298;52.560;13.508;2023-05-23T00:03:26;100605.94;;;17.15;86.18
13734;BME280;43298;52.560;13.508;2023-05-23T00:05:53;100605.72;;;17.06;87.47
13734;BME280;43298;52.560;13.508;2023-05-23T00:08:20;100607.41;;;17.07;88.22
13734;BME280;43298;52.560;13.508;2023-05-23T00:10:46;100600.06;;;17.12;86.40
13734;BME280;43298;52.560;13.508;2023-05-23T00:13:12;100598.41;;;17.11;87.18
13734;BME280;43298;52.560;13.508;2023-05-23T00:15:39;100604.47;;;17.11;86.95
13734;BME280;43298;52.560;13.508;2023-05-23T00:18:09;100600.38;;;17.07;87.69
13734;BME280;43298;52.560;13.508;2023-05-23T00:20:40;100601.75;;;17.00;90.50
13734;BME280;43298;52.560;13.508;2023-05-23T00:23:08;100610.66;;;16.98;92.28
13734;BME280;43298;52.560;13.508;2023-05-23T00:25:35;100603.38;;;16.90;93.09
13734;BME280;43298;52.560;13.508;2023-05-23T00:28:04;100604.84;;;16.82;92.86
13734;BME280;43298;52.560;13.508;2023-05-23T00:30:32;100593.34;;;16.84;94.09
13734;BME280;43298;52.560;13.508;2023-05-23T00:32:58;100592.69;;;16.81;94.51
13734;BME280;43298;52.560;13.508;2023-05-23T00:35:25;100600.34;;;16.71;93.92
13734;BME280;43298;52.560;13.508;2023-05-23T00:37:51;100595.00;;;16.73;94.02
13734;BME280;43298;52.560;13.508;2023-05-23T00:40:18;100597.81;;;16.70;93.30
13734;BME280;43298;52.560;13.508;2023-05-23T00:42:44;100594.50;;;16.68;92.87
13734;BME280;43298;52.560;13.508;2023-05-23T00:45:11;100600.44;;;16.70;93.30
13734;BME280;43298;52.560;13.508;2023-05-23T00:47:41;100593.34;;;16.72;92.94
13734;BME280;43298;52.560;13.508;2023-05-23T00:50:11;100590.00;;;16.70;92.28
13734;BME280;43298;52.560;13.508;2023-05-23T00:52:37;100591.59;;;16.72;92.05
13734;BME280;43298;52.560;13.508;2023-05-23T00:55:04;100586.88;;;16.77;90.29
13734;BME280;43298;52.560;13.508;2023-05-23T00:57:31;100583.31;;;16.78;90.51
13734;BME280;43298;52.560;13.508;2023-05-23T01:00:00;100582.25;;;16.81;90.04
13734;BME280;43298;52.560;13.508;2023-05-23T01:02:26;100578.63;;;16.71;90.93
13734;BME280;43298;52.560;13.508;2023-05-23T01:04:54;100570.25;;;16.66;91.31
13734;BME280;43298;52.560;13.508;2023-05-23T01:07:21;100568.59;;;16.65;90.86
13734;BME280;43298;52.560;13.508;2023-05-23T01:09:47;100565.78;;;16.68;90.70
13734;BME280;43298;52.560;13.508;2023-05-23T01:17:51;100548.94;;;16.84;88.41
13734;BME280;43298;52.560;13.508;2023-05-23T01:20:29;100551.81;;;16.92;87.99
13734;BME280;43298;52.560;13.508;2023-05-23T01:23:35;100549.31;;;16.91;89.09
13734;BME280;43298;52.560;13.508;2023-05-23T01:27:10;100539.63;;;16.93;88.67
13734;BME280;43298;52.560;13.508;2023-05-23T01:29:46;100543.19;;;16.92;89.66
13734;BME280;43298;52.560;13.508;2023-05-23T01:32:15;100550.78;;;16.95;89.10
13734;BME280;43298;52.560;13.508;2023-05-23T01:34:42;100546.41;;;16.95;89.06
13734;BME280;43298;52.560;13.508;2023-05-23T01:37:09;100539.19;;;16.99;89.21
13734;BME280;43298;52.560;13.508;2023-05-23T01:39:37;100538.44;;;16.97;90.50
13734;BME280;43298;52.560;13.508;2023-05-23T01:42:03;100540.84;;;17.00;89.63
13734;BME280;43298;52.560;13.508;2023-05-23T01:44:30;100535.09;;;16.95;90.11
13734;BME280;43298;52.560;13.508;2023-05-23T01:46:56;100532.59;;;16.93;89.49
13734;BME280;43298;52.560;13.508;2023-05-23T01:49:23;100534.28;;;16.94;89.29
13734;BME280;43298;52.560;13.508;2023-05-23T01:51:49;100531.56;;;16.96;90.57
13734;BME280;43298;52.560;13.508;2023-05-23T01:54:15;100537.00;;;16.93;90.66
13734;BME280;43298;52.560;13.508;2023-05-23T01:56:44;100531.56;;;16.96;91.06
13734;BME280;43298;52.560;13.508;2023-05-23T01:59:10;100530.13;;;16.92;90.70
13734;BME280;43298;52.560;13.508;2023-05-23T02:01:37;100524.91;;;16.92;89.62
13734;BME280;43298;52.560;13.508;2023-05-23T02:04:03;100529.28;;;16.91;89.32
13734;BME280;43298;52.560;13.508;2023-05-23T02:06:29;100529.06;;;16.94;89.47
13734;BME280;43298;52.560;13.508;2023-05-23T02:08:56;100522.38;;;16.90;91.16
13734;BME280;43298;52.560;13.508;2023-05-23T02:11:22;100527.63;;;16.90;89.36
13734;BME280;43298;52.560;13.508;2023-05-23T02:13:48;100529.88;;;16.95;90.03
13734;BME280;43298;52.560;13.508;2023-05-23T02:16:13;100528.44;;;16.91;89.85
13734;BME280;43298;52.560;13.508;2023-05-23T02:18:40;100530.81;;;16.94;89.05
13734;BME280;43298;52.560;13.508;2023-05-23T02:21:06;100523.00;;;16.94;89.10
13734;BME280;43298;52.560;13.508;2023-05-23T02:23:31;100531.56;;;16.96;89.86
13734;BME280;43298;52.560;13.508;2023-05-23T02:25:57;100533.44;;;16.94;90.70
13734;BME280;43298;52.560;13.508;2023-05-23T02:28:23;100528.63;;;16.88;89.99
13734;BME280;43298;52.560;13.508;2023-05-23T02:30:49;100531.50;;;16.85;90.13
13734;BME280;43298;52.560;13.508;2023-05-23T02:33:14;100533.84;;;16.88;90.00
13734;BME280;43298;52.560;13.508;2023-05-23T02:35:41;100535.13;;;16.82;93.33
13734;BME280;43298;52.560;13.508;2023-05-23T02:38:07;100540.06;;;16.74;95.59
13734;BME280;43298;52.560;13.508;2023-05-23T02:40:33;100529.84;;;16.59;95.22
13734;BME280;43298;52.560;13.508;2023-05-23T02:42:58;100530.91;;;16.56;95.27
13734;BME280;43298;52.560;13.508;2023-05-23T02:45:24;100535.81;;;16.61;95.62
13734;BME280;43298;52.560;13.508;2023-05-23T02:47:50;100530.59;;;16.61;96.45
13734;BME280;43298;52.560;13.508;2023-05-23T02:50:16;100530.59;;;16.61;97.62
13734;BME280;43298;52.560;13.508;2023-05-23T02:52:41;100528.19;;;16.58;97.79
13734;BME280;43298;52.560;13.508;2023-05-23T02:55:08;100525.78;;;16.55;97.88
13734;BME280;43298;52.560;13.508;2023-05-23T02:57:34;100521.19;;;16.58;96.19
13734;BME280;43298;52.560;13.508;2023-05-23T03:00:00;100525.16;;;16.64;95.04
13734;BME280;43298;52.560;13.508;2023-05-23T03:02:26;100523.06;;;16.69;93.59
13734;BME280;43298;52.560;13.508;2023-05-23T03:04:51;100530.25;;;16.78;93.93
13734;BME280;43298;52.560;13.508;2023-05-23T03:07:17;100523.13;;;16.80;94.01
13734;BME280;43298;52.560;13.508;2023-05-23T03:09:43;100522.19;;;16.81;93.76
13734;BME280;43298;52.560;13.508;2023-05-23T03:12:09;100516.25;;;16.79;94.34
13734;BME280;43298;52.560;13.508;2023-05-23T03:14:35;100512.69;;;16.80;93.17
13734;BME280;43298;52.560;13.508;2023-05-23T03:17:00;100516.34;;;16.77;94.19
13734;BME280;43298;52.560;13.508;2023-05-23T03:19:28;100512.38;;;16.84;92.97
13734;BME280;43298;52.560;13.508;2023-05-23T03:21:54;100510.59;;;16.85;92.76
13734;BME280;43298;52.560;13.508;2023-05-23T03:24:20;100505.38;;;16.85;93.45
13734;BME280;43298;52.560;13.508;2023-05-23T03:26:45;100507.84;;;16.86;92.98
13734;BME280;43298;52.560;13.508;2023-05-23T03:29:11;100510.69;;;16.83;93.71
13734;BME280;43298;52.560;13.508;2023-05-23T03:31:37;100508.91;;;16.84;94.04
13734;BME280;43298;52.560;13.508;2023-05-23T03:34:03;100505.69;;;16.80;94.85
13734;BME280;43298;52.560;13.508;2023-05-23T03:36:30;100502.13;;;16.81;96.22
13734;BME280;43298;52.560;13.508;2023-05-23T03:38:58;100507.66;;;16.77;96.92
13734;BME280;43298;52.560;13.508;2023-05-23T03:41:24;100511.75;;;16.68;98.14
13734;BME280;43298;52.560;13.508;2023-05-23T03:43:51;100508.34;;;16.68;99.08
13734;BME280;43298;52.560;13.508;2023-05-23T03:46:16;100508.53;;;16.65;99.59
13734;BME280;43298;52.560;13.508;2023-05-23T03:48:43;100511.06;;;16.66;100.00
13734;BME280;43298;52.560;13.508;2023-05-23T03:51:09;100508.94;;;16.71;99.63
13734;BME280;43298;52.560;13.508;2023-05-23T03:53:35;100506.16;;;16.62;100.00
13734;BME280;43298;52.560;13.508;2023-05-23T03:56:01;100510.31;;;16.64;100.00
13734;BME280;43298;52.560;13.508;2023-05-23T03:58:27;100508.03;;;16.60;100.00
13734;BME280;43298;52.560;13.508;2023-05-23T04:00:53;100506.34;;;16.59;100.00
13734;BME280;43298;52.560;13.508;2023-05-23T04:03:19;100501.16;;;16.46;100.00
13734;BME280;43298;52.560;13.508;2023-05-23T04:05:45;100506.06;;;16.51;100.00
13734;BME280;43298;52.560;13.508;2023-05-23T04:08:11;100504.69;;;16.58;100.00
13734;BME280;43298;52.560;13.508;2023-05-23T04:10:37;100508.03;;;16.60;100.00
13734;BME280;43298;52.560;13.508;2023-05-23T04:13:03;100505.31;;;16.49;100.00
13734;BME280;43298;52.560;13.508;2023-05-23T04:15:29;100505.44;;;16.60;100.00
13734;BME280;43298;52.560;13.508;2023-05-23T04:17:54;100507.38;;;16.69;100.00
13734;BME280;43298;52.560;13.508;2023-05-23T04:20:21;100506.31;;;16.71;100.00
13734;BME280;43298;52.560;13.508;2023-05-23T04:22:47;100507.56;;;16.78;99.65
13734;BME280;43298;52.560;13.508;2023-05-23T04:25:12;100498.81;;;16.79;100.00
13734;BME280;43298;52.560;13.508;2023-05-23T04:27:38;100500.03;;;16.74;100.00
13734;BME280;43298;52.560;13.508;2023-05-23T04:30:06;100502.38;;;16.66;100.00
13734;BME280;43298;52.560;13.508;2023-05-23T04:32:34;100496.66;;;16.61;100.00
13734;BME280;43298;52.560;13.508;2023-05-23T04:35:00;100497.03;;;16.67;100.00
13734;BME280;43298;52.560;13.508;2023-05-23T04:37:27;100503.22;;;16.66;100.00
13734;BME280;43298;52.560;13.508;2023-05-23T04:39:53;100503.81;;;16.70;100.00
13734;BME280;43298;52.560;13.508;2023-05-23T04:42:19;100505.06;;;16.77;100.00
13734;BME280;43298;52.560;13.508;2023-05-23T04:44:49;100498.81;;;16.79;100.00
13734;BME280;43298;52.560;13.508;2023-05-23T04:47:16;100501.91;;;16.84;100.00
13734;BME280;43298;52.560;13.508;2023-05-23T04:49:42;100503.47;;;16.87;100.00
13734;BME280;43298;52.560;13.508;2023-05-23T04:52:08;100499.19;;;16.86;100.00
13734;BME280;43298;52.560;13.508;2023-05-23T04:54:34;100486.94;;;16.86;100.00
13734;BME280;43298;52.560;13.508;2023-05-23T04:57:00;100493.88;;;16.87;100.00
13734;BME280;43298;52.560;13.508;2023-05-23T04:59:26;100498.97;;;16.89;100.00
13734;BME280;43298;52.560;13.508;2023-05-23T05:01:52;100497.41;;;16.86;100.00
13734;BME280;43298;52.560;13.508;2023-05-23T05:04:18;100495.41;;;16.90;100.00
13734;BME280;43298;52.560;13.508;2023-05-23T05:06:44;100491.63;;;16.94;100.00
13734;BME280;43298;52.560;13.508;2023-05-23T05:09:12;100486.13;;;16.86;100.00
13734;BME280;43298;52.560;13.508;2023-05-23T05:11:38;100492.19;;;16.86;100.00
13734;BME280;43298;52.560;13.508;2023-05-23T05:14:04;100481.50;;;16.89;100.00
13734;BME280;43298;52.560;13.508;2023-05-23T05:16:30;100482.91;;;16.82;100.00
13734;BME280;43298;52.560;13.508;2023-05-23T05:18:56;100487.09;;;16.85;100.00
13734;BME280;43298;52.560;13.508;2023-05-23T05:21:22;100495.03;;;16.83;100.00
13734;BME280;43298;52.560;13.508;2023-05-23T05:23:47;100489.69;;;16.85;100.00
13734;BME280;43298;52.560;13.508;2023-05-23T05:26:13;100485.84;;;16.78;100.00
13734;BME280;43298;52.560;13.508;2023-05-23T05:28:39;100499.91;;;16.88;100.00
13734;BME280;43298;52.560;13.508;2023-05-23T05:31:05;100495.78;;;16.73;100.00
13734;BME280;43298;52.560;13.508;2023-05-23T05:33:31;100496.63;;;16.73;100.00
13734;BME280;43298;52.560;13.508;2023-05-23T05:36:05;100488.00;;;16.84;100.00
13734;BME280;43298;52.560;13.508;2023-05-23T05:38:31;100493.53;;;16.92;100.00
13734;BME280;43298;52.560;13.508;2023-05-23T05:40:57;100503.38;;;16.88;100.00
13734;BME280;43298;52.560;13.508;2023-05-23T05:43:25;100504.81;;;16.92;100.00
13734;BME280;43298;52.560;13.508;2023-05-23T05:45:51;100509.50;;;17.00;100.00
13734;BME280;43298;52.560;13.508;2023-05-23T05:48:17;100513.34;;;17.07;100.00
13734;BME280;43298;52.560;13.508;2023-05-23T05:50:43;100512.56;;;17.17;100.00
13734;BME280;43298;52.560;13.508;2023-05-23T05:53:12;100514.50;;;17.26;100.00
13734;BME280;43298;52.560;13.508;2023-05-23T05:55:38;100513.44;;;17.29;100.00
13734;BME280;43298;52.560;13.508;2023-05-23T05:58:04;100509.06;;;17.29;100.00
13734;BME280;43298;52.560;13.508;2023-05-23T06:00:30;100503.25;;;17.37;100.00
13734;BME280;43298;52.560;13.508;2023-05-23T06:02:56;100500.88;;;17.34;100.00
13734;BME280;43298;52.560;13.508;2023-05-23T06:05:22;100506.91;;;17.47;100.00
13734;BME280;43298;52.560;13.508;2023-05-23T06:07:49;100501.34;;;17.51;100.00
13734;BME280;43298;52.560;13.508;2023-05-23T06:10:15;100498.13;;;17.48;100.00
13734;BME280;43298;52.560;13.508;2023-05-23T06:12:41;100490.28;;;17.48;100.00
13734;BME280;43298;52.560;13.508;2023-05-23T06:15:08;100495.16;;;17.52;100.00
13734;BME280;43298;52.560;13.508;2023-05-23T06:17:34;100493.63;;;17.50;100.00
13734;BME280;43298;52.560;13.508;2023-05-23T06:20:00;100493.28;;;17.54;100.00
13734;BME280;43298;52.560;13.508;2023-05-23T06:22:26;100484.34;;;17.46;100.00
13734;BME280;43298;52.560;13.508;2023-05-23T06:24:52;100487.66;;;17.48;100.00
13734;BME280;43298;52.560;13.508;2023-05-23T06:27:18;100481.97;;;17.54;100.00
13734;BME280;43298;52.560;13.508;2023-05-23T06:29:43;100481.03;;;17.55;100.00
13734;BME280;43298;52.560;13.508;2023-05-23T06:32:09;100484.19;;;17.71;100.00
13734;BME280;43298;52.560;13.508;2023-05-23T06:34:35;100486.06;;;17.69;100.00
13734;BME280;43298;52.560;13.508;2023-05-23T06:37:01;100488.72;;;17.91;100.00
13734;BME280;43298;52.560;13.508;2023-05-23T06:39:26;100482.78;;;17.89;100.00
13734;BME280;43298;52.560;13.508;2023-05-23T06:41:53;100475.28;;;17.84;100.00
13734;BME280;43298;52.560;13.508;2023-05-23T06:44:21;100483.22;;;17.72;100.00
13734;BME280;43298;52.560;13.508;2023-05-23T06:46:47;100483.03;;;17.86;100.00
13734;BME280;43298;52.560;13.508;2023-05-23T06:49:13;100486.09;;;17.91;100.00
13734;BME280;43298;52.560;13.508;2023-05-23T06:51:40;100483.59;;;17.78;100.00
13734;BME280;43298;52.560;13.508;2023-05-23T06:54:06;100485.78;;;18.07;100.00
13734;BME280;43298;52.560;13.508;2023-05-23T06:56:31;100495.22;;;18.20;100.00
13734;BME280;43298;52.560;13.508;2023-05-23T06:58:57;100490.72;;;18.44;100.00
13734;BME280;43298;52.560;13.508;2023-05-23T07:01:25;100494.63;;;18.61;100.00
13734;BME280;43298;52.560;13.508;2023-05-23T07:03:51;100494.16;;;18.67;98.37
13734;BME280;43298;52.560;13.508;2023-05-23T07:06:16;100492.03;;;18.72;98.52
13734;BME280;43298;52.560;13.508;2023-05-23T07:08:42;100482.78;;;18.99;94.92
13734;BME280;43298;52.560;13.508;2023-05-23T07:11:08;100485.41;;;18.99;96.02
13734;BME280;43298;52.560;13.508;2023-05-23T07:13:34;100491.56;;;19.20;95.10
13734;BME280;43298;52.560;13.508;2023-05-23T07:16:00;100493.41;;;19.40;92.53
13734;BME280;43298;52.560;13.508;2023-05-23T07:18:25;100480.66;;;19.67;94.19
13734;BME280;43298;52.560;13.508;2023-05-23T07:20:51;100491.88;;;19.58;91.17
13734;BME280;43298;52.560;13.508;2023-05-23T07:23:17;100486.19;;;19.74;91.76
13734;BME280;43298;52.560;13.508;2023-05-23T07:25:43;100493.13;;;19.95;91.20
13734;BME280;43298;52.560;13.508;2023-05-23T07:28:09;100490.13;;;20.20;91.71
13734;BME280;43298;52.560;13.508;2023-05-23T07:30:35;100495.34;;;20.50;89.11
13734;BME280;43298;52.560;13.508;2023-05-23T07:33:01;100491.06;;;20.49;89.69
13734;BME280;43298;52.560;13.508;2023-05-23T07:35:26;100488.38;;;20.30;92.75
13734;BME280;43298;52.560;13.508;2023-05-23T07:37:53;100483.28;;;20.38;94.45
13734;BME280;43298;52.560;13.508;2023-05-23T07:40:19;100479.53;;;20.31;91.07
13734;BME280;43298;52.560;13.508;2023-05-23T07:42:45;100483.47;;;20.16;92.09
13734;BME280;43298;52.560;13.508;2023-05-23T07:45:11;100480.22;;;20.33;92.99
13734;BME280;43298;52.560;13.508;2023-05-23T07:47:37;100480.50;;;20.70;89.99
13734;BME280;43298;52.560;13.508;2023-05-23T07:50:04;100473.47;;;20.80;86.61
13734;BME280;43298;52.560;13.508;2023-05-23T07:52:31;100474.44;;;20.89;88.89
13734;BME280;43298;52.560;13.508;2023-05-23T07:54:58;100476.72;;;20.93;85.49
13734;BME280;43298;52.560;13.508;2023-05-23T07:57:24;100486.47;;;20.82;85.22
13734;BME280;43298;52.560;13.508;2023-05-23T07:59:51;100476.31;;;21.07;85.42
13734;BME280;43298;52.560;13.508;2023-05-23T08:02:18;100482.25;;;21.09;84.61
13734;BME280;43298;52.560;13.508;2023-05-23T08:04:44;100492.69;;;21.49;83.25
13734;BME280;43298;52.560;13.508;2023-05-23T08:07:10;100488.59;;;22.11;81.33
13734;BME280;43298;52.560;13.508;2023-05-23T08:09:37;100494.31;;;21.69;79.14
13734;BME280;43298;52.560;13.508;2023-05-23T08:12:05;100497.47;;;20.96;81.92
13734;BME280;43298;52.560;13.508;2023-05-23T08:14:32;100502.63;;;21.07;81.83
13734;BME280;43298;52.560;13.508;2023-05-23T08:16:57;100499.84;;;20.69;81.03
13734;BME280;43298;52.560;13.508;2023-05-23T08:19:23;100498.91;;;20.80;79.92
13734;BME280;43298;52.560;13.508;2023-05-23T08:21:49;100499.69;;;20.61;81.33
13734;BME280;43298;52.560;13.508;2023-05-23T08:24:18;100497.84;;;20.82;82.62
13734;BME280;43298;52.560;13.508;2023-05-23T08:26:44;100497.66;;;21.33;80.45
13734;BME280;43298;52.560;13.508;2023-05-23T08:29:11;100497.91;;;21.11;81.17
13734;BME280;43298;52.560;13.508;2023-05-23T08:31:37;100508.06;;;21.82;77.83
13734;BME280;43298;52.560;13.508;2023-05-23T08:34:02;100501.75;;;22.11;78.38
13734;BME280;43298;52.560;13.508;2023-05-23T08:36:29;100505.22;;;22.58;78.42
13734;BME280;43298;52.560;13.508;2023-05-23T08:38:56;100506.47;;;23.35;74.81
13734;BME280;43298;52.560;13.508;2023-05-23T08:41:24;100515.75;;;22.67;72.80
13734;BME280;43298;52.560;13.508;2023-05-23T08:43:51;100515.53;;;22.42;76.97
13734;BME280;43298;52.560;13.508;2023-05-23T08:46:17;100513.28;;;22.47;75.44
13734;BME280;43298;52.560;13.508;2023-05-23T08:48:52;100515.56;;;22.78;76.64
13734;BME280;43298;52.560;13.508;2023-05-23T08:51:22;100518.06;;;22.97;74.69
13734;BME280;43298;52.560;13.508;2023-05-23T08:53:49;100521.00;;;22.94;74.18
13734;BME280;43298;52.560;13.508;2023-05-23T08:56:18;100524.56;;;23.03;73.03
13734;BME280;43298;52.560;13.508;2023-05-23T08:58:45;100516.19;;;23.52;71.37
13734;BME280;43298;52.560;13.508;2023-05-23T09:01:12;100519.44;;;23.46;71.50
13734;BME280;43298;52.560;13.508;2023-05-23T09:03:39;100515.13;;;23.45;72.80
13734;BME280;43298;52.560;13.508;2023-05-23T09:06:09;100518.16;;;23.33;72.21
13734;BME280;43298;52.560;13.508;2023-05-23T09:08:36;100523.59;;;23.31;73.92
13734;BME280;43298;52.560;13.508;2023-05-23T09:11:03;100523.34;;;22.34;77.31
13734;BME280;43298;52.560;13.508;2023-05-23T09:13:32;100530.22;;;22.44;78.96
13734;BME280;43298;52.560;13.508;2023-05-23T09:18:34;100542.97;;;23.12;77.79
13734;BME280;43298;52.560;13.508;2023-05-23T09:21:02;100529.28;;;23.79;76.44
13734;BME280;43298;52.560;13.508;2023-05-23T09:23:35;100524.97;;;24.13;75.31
13734;BME280;43298;52.560;13.508;2023-05-23T09:26:09;100531.72;;;25.00;73.18
13734;BME280;43298;52.560;13.508;2023-05-23T09:28:38;100533.84;;;25.62;71.32
13734;BME280;43298;52.560;13.508;2023-05-23T09:31:06;100527.34;;;25.33;71.97
13734;BME280;43298;52.560;13.508;2023-05-23T09:33:45;100528.03;;;25.75;70.23
13734;BME280;43298;52.560;13.508;2023-05-23T09:36:12;100523.53;;;24.86;74.41
13734;BME280;43298;52.560;13.508;2023-05-23T09:38:40;100527.13;;;25.18;75.69
13734;BME280;43298;52.560;13.508;2023-05-23T09:41:07;100527.06;;;24.94;75.36
13734;BME280;43298;52.560;13.508;2023-05-23T09:43:33;100528.25;;;24.66;75.75
13734;BME280;43298;52.560;13.508;2023-05-23T09:46:11;100530.19;;;25.79;74.20
13734;BME280;43298;52.560;13.508;2023-05-23T09:48:37;100521.59;;;25.61;72.30
13734;BME280;43298;52.560;13.508;2023-05-23T09:51:08;100518.19;;;25.27;74.29
13734;BME280;43298;52.560;13.508;2023-05-23T09:53:35;100526.69;;;25.39;72.65
13734;BME280;43298;52.560;13.508;2023-05-23T09:56:04;100520.56;;;25.30;74.16
13734;BME280;43298;52.560;13.508;2023-05-23T09:58:33;100537.84;;;25.09;76.47
13734;BME280;43298;52.560;13.508;2023-05-23T10:01:02;100523.91;;;25.72;72.97
13734;BME280;43298;52.560;13.508;2023-05-23T10:03:38;100530.09;;;27.37;69.80
13734;BME280;43298;52.560;13.508;2023-05-23T10:06:11;100526.41;;;26.77;69.58
13734;BME280;43298;52.560;13.508;2023-05-23T10:08:43;100528.28;;;27.29;70.74
13734;BME280;43298;52.560;13.508;2023-05-23T10:13:48;100527.44;;;26.52;72.88
13734;BME280;43298;52.560;13.508;2023-05-23T10:19:02;100525.00;;;25.30;79.46
13734;BME280;43298;52.560;13.508;2023-05-23T10:21:37;100533.22;;;25.19;81.71
13734;BME280;43298;52.560;13.508;2023-05-23T10:24:06;100523.25;;;25.54;80.03
13734;BME280;43298;52.560;13.508;2023-05-23T10:26:33;100527.03;;;26.24;79.11
13734;BME280;43298;52.560;13.508;2023-05-23T10:28:59;100525.88;;;26.19;77.87
13734;BME280;43298;52.560;13.508;2023-05-23T10:31:27;100527.88;;;26.17;78.66
13734;BME280;43298;52.560;13.508;2023-05-23T10:34:07;100522.88;;;25.49;80.63
13734;BME280;43298;52.560;13.508;2023-05-23T10:37:02;100528.03;;;25.43;82.32
13734;BME280;43298;52.560;13.508;2023-05-23T10:39:57;100531.75;;;25.16;80.31
13734;BME280;43298;52.560;13.508;2023-05-23T10:45:22;100532.00;;;25.55;76.59
13734;BME280;43298;52.560;13.508;2023-05-23T10:47:51;100531.53;;;25.75;76.13
13734;BME280;43298;52.560;13.508;2023-05-23T10:50:32;100526.78;;;25.13;77.62
13734;BME280;43298;52.560;13.508;2023-05-23T10:53:03;100519.25;;;26.07;78.21
13734;BME280;43298;52.560;13.508;2023-05-23T10:55:34;100535.81;;;25.60;78.07
13734;BME280;43298;52.560;13.508;2023-05-23T11:00:38;100528.03;;;25.75;81.19
13734;BME280;43298;52.560;13.508;2023-05-23T11:03:05;100532.53;;;25.90;80.15
13734;BME280;43298;52.560;13.508;2023-05-23T11:05:33;100535.81;;;24.61;83.05
13734;BME280;43298;52.560;13.508;2023-05-23T11:08:10;100548.09;;;23.94;88.39
13734;BME280;43298;52.560;13.508;2023-05-23T11:11:01;100546.03;;;25.39;87.78
13734;BME280;43298;52.560;13.508;2023-05-23T11:16:30;100549.41;;;24.41;98.28
13734;BME280;43298;52.560;13.508;2023-05-23T11:21:45;100558.13;;;23.73;100.00
13734;BME280;43298;52.560;13.508;2023-05-23T11:24:11;100566.44;;;23.78;100.00
13734;BME280;43298;52.560;13.508;2023-05-23T11:26:37;100557.22;;;23.82;100.00
13734;BME280;43298;52.560;13.508;2023-05-23T11:29:08;100556.22;;;24.00;100.00
13734;BME280;43298;52.560;13.508;2023-05-23T11:31:37;100567.41;;;23.14;100.00
13734;BME280;43298;52.560;13.508;2023-05-23T11:34:06;100566.34;;;23.07;100.00
13734;BME280;43298;52.560;13.508;2023-05-23T11:36:33;100560.66;;;23.02;100.00
13734;BME280;43298;52.560;13.508;2023-05-23T11:39:03;100566.22;;;22.72;100.00
13734;BME280;43298;52.560;13.508;2023-05-23T11:41:33;100564.84;;;22.68;100.00
13734;BME280;43298;52.560;13.508;2023-05-23T11:44:00;100565.41;;;22.07;100.00
13734;BME280;43298;52.560;13.508;2023-05-23T11:46:26;100565.47;;;22.53;100.00
13734;BME280;43298;52.560;13.508;2023-05-23T11:48:53;100567.88;;;22.73;100.00
13734;BME280;43298;52.560;13.508;2023-05-23T11:51:18;100571.16;;;22.48;100.00
13734;BME280;43298;52.560;13.508;2023-05-23T11:53:46;100571.66;;;21.96;100.00
13734;BME280;43298;52.560;13.508;2023-05-23T11:56:14;100572.47;;;22.16;100.00
13734;BME280;43298;52.560;13.508;2023-05-23T11:58:40;100575.84;;;21.80;100.00
13734;BME280;43298;52.560;13.508;2023-05-23T12:01:09;100571.50;;;22.07;100.00
13734;BME280;43298;52.560;13.508;2023-05-23T12:03:49;100576.78;;;22.72;100.00
13734;BME280;43298;52.560;13.508;2023-05-23T12:06:19;100583.13;;;22.79;100.00
13734;BME280;43298;52.560;13.508;2023-05-23T12:08:46;100581.03;;;23.10;100.00
13734;BME280;43298;52.560;13.508;2023-05-23T12:11:12;100589.16;;;22.62;100.00
13734;BME280;43298;52.560;13.508;2023-05-23T12:13:40;100586.91;;;22.12;100.00
13734;BME280;43298;52.560;13.508;2023-05-23T12:16:07;100586.47;;;22.16;100.00
13734;BME280;43298;52.560;13.508;2023-05-23T12:18:33;100587.56;;;22.23;100.00
13734;BME280;43298;52.560;13.508;2023-05-23T12:21:05;100588.56;;;21.84;100.00
13734;BME280;43298;52.560;13.508;2023-05-23T12:23:33;100594.53;;;21.96;100.00
13734;BME280;43298;52.560;13.508;2023-05-23T12:26:04;100597.19;;;21.77;100.00
13734;BME280;43298;52.560;13.508;2023-05-23T12:31:27;100591.16;;;21.46;100.00
13734;BME280;43298;52.560;13.508;2023-05-23T12:33:53;100589.91;;;21.50;100.00
13734;BME280;43298;52.560;13.508;2023-05-23T12:36:28;100591.78;;;21.78;100.00
13734;BME280;43298;52.560;13.508;2023-05-23T12:39:04;100590.63;;;22.09;100.00
13734;BME280;43298;52.560;13.508;2023-05-23T12:41:32;100592.84;;;22.14;100.00
13734;BME280;43298;52.560;13.508;2023-05-23T12:43:58;100598.41;;;22.11;100.00
13734;BME280;43298;52.560;13.508;2023-05-23T12:46:26;100597.63;;;21.33;100.00
13734;BME280;43298;52.560;13.508;2023-05-23T12:48:53;100604.88;;;21.59;100.00
13734;BME280;43298;52.560;13.508;2023-05-23T12:51:20;100600.72;;;21.57;100.00
13734;BME280;43298;52.560;13.508;2023-05-23T12:53:46;100602.38;;;21.67;100.00
13734;BME280;43298;52.560;13.508;2023-05-23T12:56:12;100606.97;;;21.07;100.00
13734;BME280;43298;52.560;13.508;2023-05-23T12:58:38;100602.94;;;21.03;100.00
13734;BME280;43298;52.560;13.508;2023-05-23T13:01:04;100600.63;;;21.19;100.00
13734;BME280;43298;52.560;13.508;2023-05-23T13:03:30;100600.84;;;21.65;100.00
13734;BME280;43298;52.560;13.508;2023-05-23T13:05:57;100616.03;;;21.33;100.00